N288AV 3R4-KSHV
Flight info
| Callsign | N288AV |
|---|---|
| Flight time | N/A |
| Altitude | 12000 |
| Route | / |
| Aircraft | C700/L-VGDW/C |
Departure
| Time | N/A |
|---|---|
| Airport | 3R4 |
Arrival
| Time | 2026-04-29 02:48 |
|---|---|
| Airport | Shreveport Regional Airport (KSHV) |
| Time | Latitude | Longitude | Altitude | Speed | Heading |
|---|---|---|---|---|---|
| 2026-04-29 02:24 | 31.54584 | -93.48418 | 320 ft | 0 kts | 206° |
| 2026-04-29 02:30 | 31.54582 | -93.48422 | 320 ft | 1 kts | 241° |
| 2026-04-29 02:31 | 31.54587 | -93.48454 | 320 ft | 8 kts | 250° |
| 2026-04-29 02:31 | 31.54524 | -93.48502 | 320 ft | 12 kts | 210° |
| 2026-04-29 02:31 | 31.54532 | -93.48583 | 321 ft | 16 kts | 302° |
| 2026-04-29 02:31 | 31.54607 | -93.48729 | 323 ft | 24 kts | 301° |
| 2026-04-29 02:32 | 31.54695 | -93.48900 | 326 ft | 20 kts | 302° |
| 2026-04-29 02:32 | 31.54736 | -93.48966 | 326 ft | 3 kts | 280° |
| 2026-04-29 02:32 | 31.54728 | -93.48973 | 326 ft | 1 kts | 191° |
| 2026-04-29 02:32 | 31.54724 | -93.48961 | 323 ft | 4 kts | 96° |
| 2026-04-29 02:33 | 31.54721 | -93.48953 | 323 ft | 0 kts | 116° |
| 2026-04-29 02:33 | 31.54638 | -93.48789 | 324 ft | 71 kts | 121° |
| 2026-04-29 02:33 | 31.54214 | -93.47969 | 495 ft | 151 kts | 122° |
| 2026-04-29 02:33 | 31.53598 | -93.46826 | 1450 ft | 182 kts | 123° |
| 2026-04-29 02:34 | 31.53258 | -93.45328 | 2581 ft | 208 kts | 84° |
| 2026-04-29 02:34 | 31.53949 | -93.43768 | 3892 ft | 230 kts | 44° |
| 2026-04-29 02:34 | 31.55435 | -93.42911 | 5187 ft | 254 kts | 9° |
| 2026-04-29 02:34 | 31.57229 | -93.43109 | 6682 ft | 267 kts | 343° |
| 2026-04-29 02:35 | 31.59025 | -93.43824 | 8377 ft | 274 kts | 340° |
| 2026-04-29 02:35 | 31.60831 | -93.44619 | 9945 ft | 282 kts | 338° |
| 2026-04-29 02:35 | 31.62711 | -93.45495 | 11247 ft | 304 kts | 338° |
| 2026-04-29 02:35 | 31.64787 | -93.46438 | 12012 ft | 344 kts | 339° |
| 2026-04-29 02:36 | 31.67138 | -93.47485 | 12035 ft | 373 kts | 339° |
| 2026-04-29 02:36 | 31.69580 | -93.48571 | 12034 ft | 380 kts | 339° |
| 2026-04-29 02:36 | 31.72046 | -93.49686 | 12027 ft | 382 kts | 338° |
| 2026-04-29 02:36 | 31.74556 | -93.50816 | 12029 ft | 384 kts | 339° |
| 2026-04-29 02:37 | 31.77037 | -93.51930 | 12028 ft | 385 kts | 339° |
| 2026-04-29 02:37 | 31.79548 | -93.53062 | 12026 ft | 384 kts | 339° |
| 2026-04-29 02:37 | 31.82025 | -93.54175 | 12024 ft | 384 kts | 339° |
| 2026-04-29 02:37 | 31.84538 | -93.55310 | 12033 ft | 383 kts | 339° |
| 2026-04-29 02:38 | 31.87018 | -93.56429 | 12040 ft | 383 kts | 339° |
| 2026-04-29 02:38 | 31.89490 | -93.57542 | 12040 ft | 382 kts | 339° |
| 2026-04-29 02:38 | 31.91961 | -93.58660 | 12043 ft | 382 kts | 339° |
| 2026-04-29 02:38 | 31.94461 | -93.59788 | 12043 ft | 382 kts | 339° |
| 2026-04-29 02:39 | 31.96936 | -93.60907 | 12045 ft | 382 kts | 338° |
| 2026-04-29 02:39 | 31.99400 | -93.62023 | 12042 ft | 383 kts | 339° |
| 2026-04-29 02:39 | 32.01903 | -93.63153 | 11757 ft | 375 kts | 339° |
| 2026-04-29 02:39 | 32.04265 | -93.64224 | 11284 ft | 354 kts | 338° |
| 2026-04-29 02:40 | 32.06492 | -93.65231 | 10826 ft | 335 kts | 339° |
| 2026-04-29 02:40 | 32.08608 | -93.66228 | 10386 ft | 318 kts | 334° |
| 2026-04-29 02:40 | 32.10362 | -93.67519 | 9983 ft | 305 kts | 323° |
| 2026-04-29 02:40 | 32.12028 | -93.69016 | 9593 ft | 293 kts | 321° |
| 2026-04-29 02:41 | 32.13598 | -93.70481 | 9207 ft | 285 kts | 321° |
| 2026-04-29 02:41 | 32.15142 | -93.71934 | 8819 ft | 282 kts | 321° |
| 2026-04-29 02:41 | 32.16682 | -93.73388 | 8435 ft | 283 kts | 321° |
| 2026-04-29 02:41 | 32.18212 | -93.74832 | 8053 ft | 284 kts | 321° |
| 2026-04-29 02:42 | 32.19767 | -93.76300 | 7676 ft | 284 kts | 321° |
| 2026-04-29 02:42 | 32.21291 | -93.77741 | 7301 ft | 281 kts | 321° |
| 2026-04-29 02:42 | 32.22804 | -93.79169 | 6927 ft | 279 kts | 321° |
| 2026-04-29 02:42 | 32.24325 | -93.80605 | 6547 ft | 277 kts | 321° |
| 2026-04-29 02:43 | 32.25818 | -93.82016 | 6173 ft | 276 kts | 321° |
| 2026-04-29 02:43 | 32.27307 | -93.83418 | 6038 ft | 267 kts | 321° |
| 2026-04-29 02:43 | 32.28756 | -93.84784 | 6033 ft | 272 kts | 321° |
| 2026-04-29 02:43 | 32.30303 | -93.86144 | 5998 ft | 277 kts | 329° |
| 2026-04-29 02:44 | 32.32078 | -93.87067 | 5707 ft | 282 kts | 339° |
| 2026-04-29 02:44 | 32.33906 | -93.87832 | 5338 ft | 277 kts | 340° |
| 2026-04-29 02:44 | 32.35705 | -93.88558 | 4964 ft | 272 kts | 341° |
| 2026-04-29 02:44 | 32.37546 | -93.89057 | 4455 ft | 270 kts | 353° |
| 2026-04-29 02:45 | 32.39392 | -93.89223 | 3943 ft | 269 kts | 356° |
| 2026-04-29 02:45 | 32.41267 | -93.89388 | 3434 ft | 267 kts | 354° |
| 2026-04-29 02:45 | 32.43079 | -93.89584 | 2942 ft | 265 kts | 354° |
| 2026-04-29 02:45 | 32.44922 | -93.89783 | 2437 ft | 263 kts | 354° |
| 2026-04-29 02:46 | 32.46740 | -93.89957 | 1939 ft | 261 kts | 358° |
| 2026-04-29 02:46 | 32.48425 | -93.89405 | 1573 ft | 248 kts | 34° |
| 2026-04-29 02:46 | 32.49399 | -93.87862 | 1302 ft | 225 kts | 72° |
| 2026-04-29 02:46 | 32.49307 | -93.86221 | 1038 ft | 184 kts | 118° |
| 2026-04-29 02:47 | 32.48456 | -93.85419 | 898 ft | 144 kts | 161° |
| 2026-04-29 02:47 | 32.47513 | -93.85147 | 753 ft | 138 kts | 168° |
| 2026-04-29 02:47 | 32.46688 | -93.84635 | 591 ft | 135 kts | 143° |
| 2026-04-29 02:47 | 32.45942 | -93.83950 | 423 ft | 134 kts | 145° |
| 2026-04-29 02:48 | 32.45186 | -93.83314 | 264 ft | 133 kts | 144° |
| 2026-04-29 02:48 | 32.44586 | -93.82772 | 245 ft | 55 kts | 142° |
| 2026-04-29 02:48 | 32.44484 | -93.82632 | 246 ft | 17 kts | 64° |
| 2026-04-29 02:48 | 32.44559 | -93.82520 | 246 ft | 17 kts | 52° |
| 2026-04-29 02:49 | 32.44679 | -93.82512 | 247 ft | 22 kts | 349° |
| 2026-04-29 02:49 | 32.44846 | -93.82550 | 246 ft | 27 kts | 349° |
| 2026-04-29 02:49 | 32.45006 | -93.82590 | 244 ft | 19 kts | 336° |
| 2026-04-29 02:49 | 32.45082 | -93.82716 | 247 ft | 20 kts | 301° |
| 2026-04-29 02:50 | 32.45141 | -93.82824 | 250 ft | 11 kts | 294° |
| 2026-04-29 02:50 | 32.45119 | -93.82855 | 249 ft | 6 kts | 180° |
| 2026-04-29 02:50 | 32.45117 | -93.82855 | 249 ft | 0 kts | 180° |